createdAt,value
2023-04-30T00:00:46.585Z,12.88
2023-04-30T00:03:50.502Z,13.43
2023-04-30T00:06:54.435Z,14.53
2023-04-30T00:09:58.035Z,15.05
2023-04-30T00:13:01.409Z,15.90
2023-04-30T00:16:07.538Z,16.76
2023-04-30T00:19:11.428Z,17.67
2023-04-30T00:22:16.075Z,18.17
2023-04-30T00:25:19.534Z,18.60
2023-04-30T00:28:23.034Z,18.94
2023-04-30T00:31:26.745Z,19.25
2023-04-30T00:34:30.305Z,19.52
2023-04-30T00:37:33.722Z,19.73
2023-04-30T00:40:37.782Z,18.83
2023-04-30T00:43:41.321Z,17.43
2023-04-30T00:46:44.607Z,15.87
2023-04-30T00:49:48.095Z,15.24
2023-04-30T00:52:51.929Z,14.83
2023-04-30T00:55:56.654Z,14.19
2023-04-30T00:59:03.013Z,14.40
2023-04-30T01:02:06.408Z,14.40
2023-04-30T01:05:09.911Z,13.95
2023-04-30T01:08:14.467Z,13.47
2023-04-30T01:11:36.082Z,13.19
2023-04-30T01:14:45.355Z,12.90
2023-04-30T01:18:11.476Z,12.76
2023-04-30T01:21:20.669Z,12.76
2023-04-30T01:24:42.805Z,12.91
2023-04-30T01:28:11.018Z,12.98
2023-04-30T01:31:17.171Z,13.18
2023-04-30T01:34:20.726Z,13.40
2023-04-30T01:37:35.294Z,13.97
2023-04-30T01:40:46.988Z,14.04
2023-04-30T01:44:10.441Z,13.95
2023-04-30T01:47:49.300Z,13.36
2023-04-30T01:51:06.125Z,13.32
2023-04-30T01:54:53.149Z,12.97
2023-04-30T01:58:01.648Z,12.79
2023-04-30T02:01:05.548Z,12.87
2023-04-30T02:04:09.139Z,12.85
2023-04-30T02:07:14.477Z,12.70
2023-04-30T02:10:19.389Z,12.63
2023-04-30T02:13:25.739Z,12.33
2023-04-30T02:16:29.243Z,11.95
2023-04-30T02:19:34.836Z,12.10
2023-04-30T02:22:39.075Z,12.30
2023-04-30T02:25:42.761Z,12.52
2023-04-30T02:28:49.691Z,12.59
2023-04-30T02:31:53.016Z,12.47
2023-04-30T02:34:59.561Z,12.43
2023-04-30T02:38:05.405Z,12.60
2023-04-30T02:41:08.968Z,12.72
2023-04-30T02:44:17.288Z,12.42
2023-04-30T02:47:20.637Z,12.06
2023-04-30T02:50:24.120Z,11.76
2023-04-30T02:53:27.848Z,11.43
2023-04-30T02:56:31.695Z,11.30
2023-04-30T02:59:35.187Z,11.04
2023-04-30T03:02:38.900Z,10.83
2023-04-30T03:05:42.513Z,10.88
2023-04-30T03:08:53.503Z,10.97
2023-04-30T03:11:57.159Z,10.93
2023-04-30T03:18:43.731Z,11.36
2023-04-30T03:21:59.812Z,11.35
2023-04-30T03:25:11.031Z,11.52
2023-04-30T03:28:16.228Z,11.94
2023-04-30T03:31:23.443Z,12.43
2023-04-30T03:34:33.875Z,12.74
2023-04-30T03:37:40.410Z,13.14
2023-04-30T03:40:46.984Z,13.56
2023-04-30T03:50:58.138Z,14.65
2023-04-30T03:54:51.193Z,15.04
2023-04-30T03:57:56.504Z,15.53
2023-04-30T04:01:00.021Z,15.66
2023-04-30T04:04:03.833Z,15.83
2023-04-30T04:07:10.420Z,15.32
2023-04-30T04:10:13.933Z,14.97
2023-04-30T04:13:17.695Z,14.93
2023-04-30T04:16:21.212Z,14.93
2023-04-30T04:19:25.460Z,15.08
2023-04-30T04:22:28.931Z,14.98
2023-04-30T04:25:34.130Z,15.11
2023-04-30T04:28:38.816Z,15.27
2023-04-30T04:31:43.503Z,15.49
2023-04-30T04:34:48.093Z,15.66
2023-04-30T04:37:53.125Z,15.89
2023-04-30T04:40:58.137Z,15.97
2023-04-30T04:44:02.554Z,16.15
2023-04-30T04:47:06.756Z,16.01
2023-04-30T04:50:10.539Z,16.11
2023-04-30T04:53:14.777Z,16.22
2023-04-30T04:56:18.034Z,16.35
2023-04-30T04:59:21.628Z,16.48
2023-04-30T05:02:25.802Z,16.44
2023-04-30T05:05:29.216Z,16.57
2023-04-30T05:08:33.016Z,16.93
2023-04-30T05:11:37.035Z,17.25
2023-04-30T05:14:40.446Z,17.25
2023-04-30T05:17:44.073Z,17.27
2023-04-30T05:20:47.429Z,17.25
2023-04-30T05:23:50.736Z,17.24
2023-04-30T05:26:54.025Z,17.36
2023-04-30T05:29:57.576Z,17.62
2023-04-30T05:33:01.644Z,17.53
2023-04-30T05:36:05.208Z,17.49
2023-04-30T05:39:09.967Z,17.62
2023-04-30T05:42:13.507Z,17.84
2023-04-30T05:45:18.141Z,18.22
2023-04-30T05:48:22.900Z,18.45
2023-04-30T05:51:26.549Z,18.65
2023-04-30T05:54:33.668Z,18.63
2023-04-30T05:57:39.086Z,18.87
2023-04-30T06:00:42.404Z,19.11
2023-04-30T06:03:46.207Z,18.94
2023-04-30T06:06:51.048Z,18.79
2023-04-30T06:09:58.085Z,18.56
2023-04-30T06:13:04.071Z,18.52
2023-04-30T06:20:01.461Z,18.97
2023-04-30T06:23:10.526Z,19.17
2023-04-30T06:26:18.630Z,19.42
2023-04-30T06:29:22.181Z,19.45
2023-04-30T06:32:25.618Z,19.52
2023-04-30T06:35:34.277Z,19.74
2023-04-30T06:38:53.537Z,19.66
2023-04-30T06:41:57.261Z,19.84
2023-04-30T06:45:07.313Z,20.01
2023-04-30T06:48:11.177Z,20.21
2023-04-30T06:51:14.397Z,19.96
2023-04-30T06:54:23.527Z,20.03
2023-04-30T07:07:57.674Z,19.79
2023-04-30T07:11:02.051Z,19.41
2023-04-30T07:14:06.196Z,19.20
2023-04-30T07:17:13.864Z,18.90
2023-04-30T07:20:18.894Z,18.70
2023-04-30T07:23:22.678Z,18.69
2023-04-30T07:26:29.078Z,18.84
2023-04-30T07:29:32.553Z,18.94
2023-04-30T07:32:37.067Z,18.87
2023-04-30T07:35:40.409Z,18.94
2023-04-30T07:38:43.850Z,19.01
2023-04-30T07:41:49.886Z,18.89
2023-04-30T07:44:53.708Z,18.60
2023-04-30T07:47:57.095Z,18.63
2023-04-30T07:51:01.011Z,18.86
2023-04-30T07:54:07.621Z,19.17
2023-04-30T07:57:11.024Z,19.41
2023-04-30T08:00:17.311Z,19.29
2023-04-30T08:03:21.436Z,19.22
2023-04-30T08:06:25.116Z,19.27
2023-04-30T08:09:28.584Z,18.97
2023-04-30T08:12:32.057Z,18.90
2023-04-30T08:15:35.738Z,18.93
2023-04-30T08:18:45.554Z,18.90
2023-04-30T08:22:10.371Z,18.87
2023-04-30T08:25:13.955Z,18.77
2023-04-30T08:28:22.759Z,18.91
2023-04-30T08:31:28.958Z,19.17
2023-04-30T08:34:42.195Z,19.32
2023-04-30T08:38:10.863Z,19.39
2023-04-30T08:41:15.733Z,19.45
2023-04-30T08:44:28.219Z,19.61
2023-04-30T08:47:47.268Z,19.74
2023-04-30T08:50:54.045Z,19.56
2023-04-30T08:53:58.760Z,19.35
2023-04-30T08:57:02.311Z,19.29
2023-04-30T09:00:08.245Z,19.08
2023-04-30T09:03:12.062Z,19.08
2023-04-30T09:06:24.803Z,19.01
2023-04-30T09:09:34.323Z,18.94
2023-04-30T09:12:37.902Z,18.84
2023-04-30T09:15:46.385Z,18.77
2023-04-30T09:18:50.744Z,18.70
2023-04-30T09:21:57.310Z,18.60
2023-04-30T09:25:03.753Z,18.49
2023-04-30T09:28:17.347Z,18.32
2023-04-30T09:31:26.880Z,18.24
2023-04-30T09:34:36.714Z,18.14
2023-04-30T09:37:40.385Z,18.05
2023-04-30T09:40:44.324Z,18.04
2023-04-30T09:44:30.067Z,18.10
2023-04-30T09:47:34.430Z,17.96
2023-04-30T09:50:43.434Z,17.91
2023-04-30T09:53:50.006Z,17.90
2023-04-30T09:56:56.543Z,17.96
2023-04-30T10:00:01.471Z,17.96
2023-04-30T10:03:16.073Z,17.90
2023-04-30T10:06:37.630Z,17.86
2023-04-30T10:09:49.056Z,17.73
2023-04-30T10:13:02.533Z,17.63
2023-04-30T10:16:13.056Z,17.57
2023-04-30T10:19:24.687Z,17.48
2023-04-30T10:22:29.586Z,17.39
2023-04-30T10:25:33.617Z,17.31
2023-04-30T10:28:37.327Z,17.22
2023-04-30T10:31:42.607Z,17.14
2023-04-30T10:35:11.998Z,17.04
2023-04-30T10:38:27.326Z,16.90
2023-04-30T10:41:32.019Z,16.80
2023-04-30T10:44:37.327Z,16.77
2023-04-30T10:47:46.253Z,16.66
2023-04-30T10:50:52.983Z,16.55
2023-04-30T10:53:57.218Z,16.46
2023-04-30T10:57:14.792Z,16.39
2023-04-30T11:00:25.734Z,16.25
2023-04-30T11:03:33.545Z,16.19
2023-04-30T11:06:57.099Z,16.11
2023-04-30T11:10:02.689Z,15.96
2023-04-30T11:13:11.304Z,15.87
2023-04-30T11:16:18.062Z,15.74
2023-04-30T11:19:25.758Z,15.67
2023-04-30T11:22:36.877Z,15.53
2023-04-30T11:25:47.635Z,15.52
2023-04-30T11:35:25.422Z,15.28
2023-04-30T11:41:50.539Z,15.02
2023-04-30T11:44:56.767Z,14.97
2023-04-30T11:48:00.642Z,14.85
2023-04-30T11:51:06.023Z,14.80
2023-04-30T11:54:11.065Z,14.70
2023-04-30T11:57:17.353Z,14.67
2023-04-30T12:00:22.492Z,14.62
2023-04-30T12:03:51.154Z,14.56
2023-04-30T12:07:44.091Z,14.52
2023-04-30T12:10:47.478Z,14.42
2023-04-30T12:13:54.199Z,14.36
2023-04-30T12:16:58.008Z,14.32
2023-04-30T12:20:01.588Z,14.29
2023-04-30T12:23:08.210Z,14.25
2023-04-30T12:26:36.632Z,14.21
2023-04-30T12:29:46.301Z,14.21
2023-04-30T12:32:54.211Z,14.11
2023-04-30T12:36:00.140Z,14.14
2023-04-30T12:39:23.590Z,14.10
2023-04-30T12:42:52.282Z,14.12
2023-04-30T12:45:57.140Z,14.11
2023-04-30T12:49:01.349Z,14.07
2023-04-30T12:52:15.937Z,14.01
2023-04-30T12:55:22.647Z,14.02
2023-04-30T12:58:32.350Z,14.04
2023-04-30T13:01:46.090Z,13.98
2023-04-30T13:04:51.889Z,13.91
2023-04-30T13:08:04.401Z,13.90
2023-04-30T13:11:09.751Z,13.83
2023-04-30T13:14:14.075Z,13.80
2023-04-30T13:17:17.433Z,13.74
2023-04-30T13:20:21.010Z,13.70
2023-04-30T13:23:24.460Z,13.65
2023-04-30T13:26:28.417Z,13.59
2023-04-30T13:29:32.576Z,13.57
2023-04-30T13:32:36.122Z,13.50
2023-04-30T13:35:39.981Z,13.47
2023-04-30T13:38:44.287Z,13.38
2023-04-30T13:41:50.432Z,13.35
2023-04-30T13:44:54.026Z,13.36
2023-04-30T13:47:57.533Z,13.34
2023-04-30T13:51:01.836Z,13.35
2023-04-30T13:54:05.207Z,13.35
2023-04-30T13:57:08.620Z,13.25
2023-04-30T14:00:12.949Z,13.22
2023-04-30T14:03:16.824Z,13.25
2023-04-30T14:06:20.242Z,13.14
2023-04-30T14:09:24.169Z,13.12
2023-04-30T14:12:27.541Z,13.16
2023-04-30T14:15:35.330Z,13.15
2023-04-30T14:18:38.727Z,13.08
2023-04-30T14:21:42.166Z,13.05
2023-04-30T14:24:48.627Z,13.02
2023-04-30T14:27:52.015Z,12.95
2023-04-30T14:30:57.185Z,12.83
2023-04-30T14:34:00.764Z,12.72
2023-04-30T14:37:04.612Z,12.55
2023-04-30T14:40:08.971Z,12.49
2023-04-30T14:43:28.593Z,12.39
2023-04-30T14:46:33.978Z,12.28
2023-04-30T14:49:37.372Z,12.26
2023-04-30T14:52:43.777Z,12.26
2023-04-30T14:55:47.079Z,12.26
2023-04-30T14:58:50.434Z,12.25
2023-04-30T15:01:53.784Z,12.24
2023-04-30T15:04:57.243Z,12.29
2023-04-30T15:08:02.847Z,12.25
2023-04-30T15:11:09.417Z,12.17
2023-04-30T15:14:12.791Z,12.14
2023-04-30T15:17:18.671Z,12.05
2023-04-30T15:20:22.082Z,11.97
2023-04-30T15:23:25.636Z,11.85
2023-04-30T15:26:33.702Z,11.78
2023-04-30T15:29:41.278Z,11.70
2023-04-30T15:32:44.735Z,11.63
2023-04-30T15:35:51.147Z,11.59
2023-04-30T15:38:57.565Z,11.52
2023-04-30T15:42:04.255Z,11.47
2023-04-30T15:45:09.508Z,11.44
2023-04-30T15:48:12.991Z,11.43
2023-04-30T15:51:16.622Z,11.38
2023-04-30T15:54:22.684Z,11.29
2023-04-30T15:57:26.406Z,11.25
2023-04-30T16:00:33.451Z,11.22
2023-04-30T16:03:38.200Z,11.29
2023-04-30T16:06:41.857Z,11.28
2023-04-30T16:09:46.826Z,11.28
2023-04-30T16:12:52.699Z,11.25
2023-04-30T16:15:56.318Z,11.32
2023-04-30T16:18:59.701Z,11.26
2023-04-30T16:22:03.565Z,11.26
2023-04-30T16:25:09.091Z,11.29
2023-04-30T16:28:12.384Z,11.29
2023-04-30T16:31:16.305Z,11.32
2023-04-30T16:34:19.871Z,11.32
2023-04-30T16:37:27.146Z,11.35
2023-04-30T16:40:31.678Z,11.39
2023-04-30T16:43:35.781Z,11.43
2023-04-30T16:46:44.009Z,11.52
2023-04-30T16:49:47.336Z,11.52
2023-04-30T16:52:50.809Z,11.46
2023-04-30T16:55:57.095Z,11.47
2023-04-30T16:59:02.811Z,11.46
2023-04-30T17:02:09.928Z,11.40
2023-04-30T17:05:13.019Z,11.35
2023-04-30T17:08:20.797Z,11.35
2023-04-30T17:11:25.913Z,11.28
2023-04-30T17:14:29.358Z,11.21
2023-04-30T17:17:33.568Z,11.10
2023-04-30T17:20:37.193Z,10.98
2023-04-30T17:23:41.097Z,10.85
2023-04-30T17:26:44.491Z,10.78
2023-04-30T17:29:50.725Z,10.67
2023-04-30T17:32:54.081Z,10.59
2023-04-30T17:35:57.339Z,10.46
2023-04-30T17:39:03.477Z,10.38
2023-04-30T17:42:07.069Z,10.28
2023-04-30T17:45:10.711Z,10.16
2023-04-30T17:48:14.180Z,10.08
2023-04-30T17:51:19.021Z,10.11
2023-04-30T17:54:22.677Z,10.18
2023-04-30T17:57:25.997Z,10.16
2023-04-30T18:00:29.460Z,10.23
2023-04-30T18:03:33.230Z,10.21
2023-04-30T18:06:39.806Z,10.25
2023-04-30T18:09:45.696Z,10.28
2023-04-30T18:12:50.427Z,10.32
2023-04-30T18:15:53.860Z,10.35
2023-04-30T18:18:57.597Z,10.35
2023-04-30T18:22:01.220Z,10.35
2023-04-30T18:25:04.629Z,10.30
2023-04-30T18:28:10.905Z,10.25
2023-04-30T18:31:14.210Z,10.25
2023-04-30T18:34:17.748Z,10.18
2023-04-30T18:37:22.426Z,10.05
2023-04-30T18:40:26.173Z,9.99
2023-04-30T18:43:29.730Z,9.91
2023-04-30T18:46:33.081Z,9.87
2023-04-30T18:49:37.654Z,9.77
2023-04-30T18:52:41.617Z,9.70
2023-04-30T18:55:50.329Z,9.61
2023-04-30T18:58:53.672Z,9.53
2023-04-30T19:01:57.252Z,9.50
2023-04-30T19:05:00.571Z,9.44
2023-04-30T19:08:04.256Z,9.35
2023-04-30T19:11:07.705Z,9.36
2023-04-30T19:14:11.021Z,9.39
2023-04-30T19:17:14.934Z,9.43
2023-04-30T19:20:18.558Z,9.46
2023-04-30T19:23:21.792Z,9.43
2023-04-30T19:26:26.539Z,9.44
2023-04-30T19:29:29.998Z,9.43
2023-04-30T19:32:33.271Z,9.43
2023-04-30T19:35:37.482Z,9.43
2023-04-30T19:38:42.005Z,9.51
2023-04-30T19:41:45.268Z,9.51
2023-04-30T19:44:48.880Z,9.54
2023-04-30T19:47:52.251Z,9.56
2023-04-30T19:50:55.678Z,9.60
2023-04-30T19:54:00.027Z,9.64
2023-04-30T19:57:03.462Z,9.61
2023-04-30T20:00:07.320Z,9.61
2023-04-30T20:03:11.055Z,9.66
2023-04-30T20:06:14.423Z,9.69
2023-04-30T20:09:17.833Z,9.71
2023-04-30T20:12:21.191Z,9.75
2023-04-30T20:15:25.478Z,9.77
2023-04-30T20:18:28.733Z,9.77
2023-04-30T20:21:32.734Z,9.83
2023-04-30T20:24:36.027Z,9.84
2023-04-30T20:27:39.615Z,9.83
2023-04-30T20:30:43.825Z,9.81
2023-04-30T20:33:47.766Z,9.81
2023-04-30T20:36:51.272Z,9.78
2023-04-30T20:39:54.687Z,9.78
2023-04-30T20:42:58.278Z,9.80
2023-04-30T20:46:01.670Z,9.81
2023-04-30T20:49:05.838Z,9.85
2023-04-30T20:52:09.380Z,9.88
2023-04-30T20:55:12.867Z,9.97
2023-04-30T20:58:16.727Z,10.01
2023-04-30T21:01:20.065Z,10.08
2023-04-30T21:04:24.009Z,10.11
2023-04-30T21:07:28.191Z,10.16
2023-04-30T21:10:37.089Z,10.18
2023-04-30T21:13:42.423Z,10.22
2023-04-30T21:16:45.937Z,10.22
2023-04-30T21:19:49.383Z,10.22
2023-04-30T21:22:55.671Z,10.23
2023-04-30T21:25:59.085Z,10.25
2023-04-30T21:29:03.585Z,10.28
2023-04-30T21:32:06.864Z,10.26
2023-04-30T21:35:10.468Z,10.28
2023-04-30T21:38:14.451Z,10.29
2023-04-30T21:41:19.212Z,10.39
2023-04-30T21:44:22.624Z,10.43
2023-04-30T21:47:26.064Z,10.49
2023-04-30T21:50:29.822Z,10.57
2023-04-30T21:53:33.020Z,10.66
2023-04-30T21:56:36.337Z,10.75
2023-04-30T21:59:39.604Z,10.81
2023-04-30T22:02:43.683Z,10.90
2023-04-30T22:05:46.980Z,10.98
2023-04-30T22:08:50.312Z,11.08
2023-04-30T22:11:54.422Z,11.16
2023-04-30T22:14:57.886Z,11.25
2023-04-30T22:18:01.392Z,11.36
2023-04-30T22:21:04.713Z,11.49
2023-04-30T22:24:08.328Z,11.57
2023-04-30T22:27:12.025Z,11.64
2023-04-30T22:30:15.707Z,11.69
2023-04-30T22:33:20.377Z,11.67
2023-04-30T22:36:25.328Z,11.67
2023-04-30T22:39:28.801Z,11.74
2023-04-30T22:42:32.626Z,11.74
2023-04-30T22:45:38.824Z,11.83
2023-04-30T22:48:43.324Z,11.87
2023-04-30T22:51:47.908Z,11.90
2023-04-30T22:54:51.470Z,11.99
2023-04-30T22:57:54.840Z,12.06
2023-04-30T23:00:58.345Z,12.02
2023-04-30T23:04:02.021Z,12.01
2023-04-30T23:07:05.279Z,11.99
2023-04-30T23:10:09.003Z,12.05
2023-04-30T23:13:12.560Z,12.11
2023-04-30T23:16:15.939Z,12.12
2023-04-30T23:19:19.328Z,12.22
2023-04-30T23:22:22.827Z,12.28
2023-04-30T23:25:26.279Z,12.32
2023-04-30T23:28:29.692Z,12.40
2023-04-30T23:31:33.121Z,12.60
2023-04-30T23:34:36.451Z,12.81
2023-04-30T23:37:39.772Z,13.07
2023-04-30T23:40:43.716Z,13.29
2023-04-30T23:43:47.025Z,13.50
2023-04-30T23:46:51.625Z,13.60
2023-04-30T23:49:55.490Z,13.83
2023-04-30T23:52:58.960Z,14.01
2023-04-30T23:56:02.558Z,14.24
2023-04-30T23:59:05.861Z,14.32
